Time;durP1;ratioP1;P1;durP2;ratioP2;P2;SDS_P1;SDS_P2;PMS_P1;PMS_P2;Temp;Humidity;BMP_temperature;BMP_pressure;BME280_temperature;BME280_humidity;BME280_pressure;Samples;Min_cycle;Max_cycle;Signal;HPM_P1;HPM_P2
2023/09/20 00:02:21;;;;;;;;;0.00;0.00;;;;;19.39;69.93;100508.63;5056893;28;45528;-83
2023/09/20 00:04:47;;;;;;;;;2.33;0.00;;;;;19.31;70.17;100498.59;5061021;28;45562;-80
2023/09/20 00:07:13;;;;;;;;;0.00;0.00;;;;;19.35;70.00;100494.59;5057793;28;45398;-82
2023/09/20 00:09:39;;;;;;;;;0.33;0.00;;;;;19.19;70.13;100469.22;5057680;28;45371;-80
2023/09/20 00:12:05;;;;;;;;;0.67;0.67;;;;;19.35;70.15;100497.28;5060847;28;45425;-83
2023/09/20 00:14:30;;;;;;;;;1.67;0.00;;;;;19.33;70.36;100491.19;5057901;28;47332;-81
2023/09/20 00:16:55;;;;;;;;;1.00;1.00;;;;;18.95;70.44;100434.63;5056577;28;45550;-81
2023/09/20 00:19:21;;;;;;;;;1.00;1.00;;;;;19.35;70.49;100500.00;5059216;28;48972;-82
2023/09/20 00:21:47;;;;;;;;;1.00;1.00;;;;;19.31;70.42;100495.03;5058053;28;58490;-80
2023/09/20 00:24:12;;;;;;;;;0.33;0.33;;;;;19.32;70.67;100494.88;5057270;28;45749;-79
2023/09/20 00:26:38;;;;;;;;;0.00;0.00;;;;;19.13;71.05;100465.25;5057871;28;45548;-78
2023/09/20 00:29:07;;;;;;;;;1.00;1.00;;;;;19.21;70.76;100480.72;5058498;28;49321;-81
2023/09/20 00:31:33;;;;;;;;;0.00;0.00;;;;;19.23;71.62;100489.50;5058039;28;45576;-80
2023/09/20 00:34:00;;;;;;;;;2.00;0.00;;;;;19.18;70.94;100479.16;5055766;28;47222;-80
2023/09/20 00:36:26;;;;;;;;;1.00;1.00;;;;;19.20;71.40;100487.94;5051679;28;45331;-79
2023/09/20 00:38:52;;;;;;;;;1.00;1.00;;;;;19.18;71.09;100479.16;5035055;28;45233;-80
2023/09/20 00:41:18;;;;;;;;;0.67;0.67;;;;;19.07;72.01;100460.44;5039327;28;45262;-81
2023/09/20 00:43:44;;;;;;;;;1.00;1.00;;;;;19.08;71.78;100467.53;5038752;28;46316;-81
2023/09/20 00:46:11;;;;;;;;;1.00;1.00;;;;;19.14;71.93;100472.34;5054100;28;45260;-80
2023/09/20 00:48:38;;;;;;;;;2.00;2.00;;;;;18.93;71.86;100437.47;5060973;27;45394;-80
2023/09/20 00:51:05;;;;;;;;;0.33;0.33;;;;;19.13;72.06;100479.56;5060562;28;45423;-82
2023/09/20 00:53:32;;;;;;;;;3.00;2.00;;;;;19.16;71.84;100470.38;5061699;28;45359;-81
2023/09/20 00:55:58;;;;;;;;;1.00;1.00;;;;;19.14;71.88;100466.94;5060833;28;45234;-80
2023/09/20 00:58:24;;;;;;;;;1.00;1.00;;;;;18.97;72.37;100452.34;5060965;28;45419;-85
2023/09/20 01:00:54;;;;;;;;;0.33;0.33;;;;;19.01;72.50;100458.31;5061197;28;45329;-82
2023/09/20 01:03:20;;;;;;;;;2.33;1.33;;;;;19.01;72.35;100455.59;5060541;28;46090;-82
2023/09/20 01:05:47;;;;;;;;;0.33;0.00;;;;;18.97;72.96;100463.13;5061210;28;45487;-83
2023/09/20 01:08:13;;;;;;;;;0.33;0.33;;;;;18.93;73.39;100469.81;5065810;28;45304;-83
2023/09/20 01:10:38;;;;;;;;;4.00;0.67;;;;;18.81;73.60;100438.63;5063126;28;45216;-79
2023/09/20 01:13:05;;;;;;;;;1.00;1.00;;;;;18.82;73.57;100445.72;5060341;28;56663;-87
2023/09/20 01:15:34;;;;;;;;;1.00;1.00;;;;;18.68;74.04;100421.91;5060956;28;44937;-83
2023/09/20 01:18:01;;;;;;;;;0.00;0.00;;;;;18.85;74.05;100459.75;5060050;28;45397;-81
2023/09/20 01:20:37;;;;;;;;;1.00;1.00;;;;;18.75;74.06;100440.06;5061874;28;45185;-81
2023/09/20 01:23:03;;;;;;;;;1.00;1.00;;;;;18.82;74.37;100462.72;5060613;28;45258;-80
2023/09/20 01:25:30;;;;;;;;;1.67;1.67;;;;;18.65;74.90;100430.25;5058956;28;45283;-81
2023/09/20 01:28:00;;;;;;;;;2.00;1.00;;;;;18.74;74.73;100454.50;5060834;28;45478;-79
2023/09/20 01:30:30;;;;;;;;;2.33;1.33;;;;;18.74;74.66;100454.50;5059955;28;45448;-81
2023/09/20 01:33:15;;;;;;;;;1.00;1.00;;;;;18.67;74.75;100450.69;5064633;28;45405;-80
2023/09/20 01:35:40;;;;;;;;;1.00;1.00;;;;;18.57;75.54;100444.41;5062706;28;45382;-82
2023/09/20 01:38:10;;;;;;;;;2.00;2.00;;;;;18.56;75.19;100438.16;5061905;28;45185;-85
2023/09/20 01:40:39;;;;;;;;;2.00;1.00;;;;;18.56;75.63;100445.38;5061181;28;45328;-80
2023/09/20 01:43:08;;;;;;;;;2.00;0.00;;;;;18.55;75.78;100435.59;5067401;28;45251;-79
2023/09/20 01:45:35;;;;;;;;;2.00;0.67;;;;;18.53;76.75;100445.69;5067553;28;45507;-81
2023/09/20 01:48:05;;;;;;;;;1.00;1.00;;;;;18.50;76.56;100448.66;5063026;28;45423;-78
2023/09/20 01:50:33;;;;;;;;;2.00;1.00;;;;;18.47;76.71;100446.22;5061216;28;45631;-79
2023/09/20 01:53:00;;;;;;;;;1.00;1.00;;;;;18.47;76.81;100440.84;5061020;28;46154;-79
2023/09/20 01:55:28;;;;;;;;;0.67;0.00;;;;;18.47;77.13;100443.53;5060306;28;45282;-86
2023/09/20 01:57:55;;;;;;;;;4.00;1.00;;;;;18.44;76.91;100441.13;5060815;28;45361;-83
2023/09/20 02:00:22;;;;;;;;;1.00;1.00;;;;;18.36;77.48;100431.06;5060401;28;45323;-84
2023/09/20 02:02:55;;;;;;;;;0.67;0.67;;;;;18.38;77.40;100439.84;5059278;28;47361;-82
2023/09/20 02:05:23;;;;;;;;;0.33;0.33;;;;;18.33;77.60;100423.25;5060151;28;45236;-80
2023/09/20 02:07:50;;;;;;;;;0.67;0.67;;;;;18.40;77.25;100434.31;5058756;28;45358;-79
2023/09/20 02:10:16;;;;;;;;;1.00;1.00;;;;;18.31;77.49;100424.38;5059016;28;45338;-79
2023/09/20 02:12:46;;;;;;;;;1.00;1.00;;;;;18.34;77.56;100427.63;5060147;28;45334;-81
2023/09/20 02:15:13;;;;;;;;;1.33;1.33;;;;;18.34;77.86;100434.88;5059203;28;45346;-81
2023/09/20 02:17:39;;;;;;;;;0.00;0.00;;;;;18.30;78.03;100433.47;5058698;28;45457;-84
2023/09/20 02:20:09;;;;;;;;;1.00;1.00;;;;;18.13;77.87;100398.16;5058200;28;45390;-81
2023/09/20 02:22:39;;;;;;;;;0.67;0.67;;;;;18.19;77.99;100421.81;5058003;28;46109;-80
2023/09/20 02:25:11;;;;;;;;;1.00;1.00;;;;;18.16;78.15;100416.72;5058996;28;45333;-79
2023/09/20 02:27:43;;;;;;;;;2.33;1.00;;;;;18.08;78.44;100397.72;5058805;28;45362;-79
2023/09/20 02:30:15;;;;;;;;;1.00;0.00;;;;;18.03;78.97;100407.19;5060163;28;45318;-78
2023/09/20 02:32:41;;;;;;;;;0.00;0.00;;;;;17.98;78.75;100400.41;5059592;28;46330;-80
2023/09/20 02:35:07;;;;;;;;;1.00;1.00;;;;;18.06;78.64;100415.84;5058993;28;45396;-80
2023/09/20 02:37:37;;;;;;;;;0.00;0.00;;;;;18.04;78.89;100408.91;5059622;28;45391;-80
2023/09/20 02:40:07;;;;;;;;;0.00;0.00;;;;;18.08;78.83;100419.22;5057898;28;45603;-79
2023/09/20 02:42:40;;;;;;;;;1.00;1.00;;;;;18.05;78.53;100413.28;5061062;28;45927;-80
2023/09/20 02:45:07;;;;;;;;;2.67;1.00;;;;;18.03;79.14;100409.88;5065582;28;45315;-78
2023/09/20 02:47:32;;;;;;;;;2.00;1.00;;;;;17.84;78.98;100378.38;5071196;28;45342;-80
2023/09/20 02:49:57;;;;;;;;;1.00;1.00;;;;;18.03;78.98;100408.03;5068685;28;45337;-80
2023/09/20 02:52:23;;;;;;;;;1.67;1.00;;;;;17.91;79.13;100387.63;5068853;28;46262;-81
2023/09/20 02:54:49;;;;;;;;;0.33;0.33;;;;;17.94;79.19;100406.16;5071422;28;45224;-81
2023/09/20 02:57:15;;;;;;;;;2.00;1.00;;;;;18.05;79.54;100411.44;5069940;28;45326;-80
2023/09/20 02:59:40;;;;;;;;;1.00;1.00;;;;;18.06;79.47;100410.47;5075421;28;44911;-78
2023/09/20 03:02:06;;;;;;;;;1.00;1.00;;;;;18.02;79.77;100410.88;5066954;28;45388;-81
2023/09/20 03:04:32;;;;;;;;;1.67;0.00;;;;;18.03;79.52;100409.88;5064597;28;45334;-78
2023/09/20 03:06:58;;;;;;;;;1.00;1.00;;;;;17.89;79.84;100379.69;5063114;28;45488;-80
2023/09/20 03:09:26;;;;;;;;;1.67;1.67;;;;;17.98;80.07;100392.31;5061004;28;45665;-81
2023/09/20 03:11:54;;;;;;;;;1.00;1.00;;;;;17.92;80.73;100387.47;5057782;28;46001;-81
2023/09/20 03:14:19;;;;;;;;;0.00;0.00;;;;;17.92;81.01;100394.69;5057265;28;45354;-81
2023/09/20 03:16:45;;;;;;;;;0.33;0.33;;;;;17.89;80.91;100387.75;5057226;28;64004;-86
2023/09/20 03:19:14;;;;;;;;;1.67;1.67;;;;;17.84;81.16;100375.69;5057850;28;45655;-80
2023/09/20 03:21:41;;;;;;;;;0.00;0.00;;;;;17.85;81.78;100380.13;5057772;28;46673;-84
2023/09/20 03:24:07;;;;;;;;;1.00;1.00;;;;;17.75;81.99;100368.47;5057019;28;45433;-79
2023/09/20 03:26:35;;;;;;;;;1.00;1.00;;;;;17.67;81.67;100353.81;5056843;28;45250;-79
2023/09/20 03:29:04;;;;;;;;;2.33;1.00;;;;;17.87;81.68;100378.13;5056570;28;45576;-80
2023/09/20 03:31:31;;;;;;;;;1.00;0.00;;;;;17.85;82.08;100372.06;5056888;28;46208;-79
2023/09/20 03:33:59;;;;;;;;;1.00;1.00;;;;;17.85;81.71;100367.53;5057100;28;45346;-81
2023/09/20 03:36:25;;;;;;;;;1.67;0.00;;;;;17.80;81.98;100355.44;5058064;28;45461;-81
2023/09/20 03:38:51;;;;;;;;;0.00;0.00;;;;;17.83;82.26;100363.25;5065833;28;45248;-88
2023/09/20 03:41:16;;;;;;;;;0.00;0.00;;;;;17.82;82.68;100358.84;5064796;28;45970;-80
2023/09/20 03:43:41;;;;;;;;;1.00;1.00;;;;;17.64;82.71;100324.53;5063157;28;45366;-84
2023/09/20 03:46:07;;;;;;;;;1.00;1.00;;;;;17.71;82.53;100334.75;5062831;28;45402;-79
2023/09/20 03:48:33;;;;;;;;;3.00;1.33;;;;;17.84;82.57;100346.09;5059502;28;45511;-81
2023/09/20 03:50:58;;;;;;;;;0.67;0.67;;;;;17.76;82.19;100335.22;5058751;28;46858;-82
2023/09/20 03:53:25;;;;;;;;;0.33;0.33;;;;;17.77;82.53;100336.91;5063044;28;45373;-80
2023/09/20 03:55:50;;;;;;;;;2.00;1.00;;;;;17.82;82.77;100337.34;5059826;28;45373;-82
2023/09/20 03:58:16;;;;;;;;;1.33;1.33;;;;;17.81;82.66;100343.69;5058222;28;45486;-80
2023/09/20 04:00:45;;;;;;;;;2.67;2.00;;;;;17.72;82.93;100323.03;5057630;28;45244;-83
2023/09/20 04:03:12;;;;;;;;;1.00;1.00;;;;;17.74;82.70;100323.75;5060385;28;45350;-86
2023/09/20 04:05:38;;;;;;;;;1.00;1.00;;;;;17.68;82.93;100312.53;5059959;28;45434;-80
2023/09/20 04:08:06;;;;;;;;;2.00;2.00;;;;;17.86;83.02;100338.78;5059147;28;45426;-83
2023/09/20 04:10:31;;;;;;;;;1.00;1.00;;;;;17.80;82.59;100334.78;5057669;28;46175;-84
2023/09/20 04:12:57;;;;;;;;;1.33;1.33;;;;;17.84;83.06;100343.41;5057169;28;45195;-82
2023/09/20 04:15:24;;;;;;;;;1.00;1.00;;;;;17.82;82.73;100332.81;5061176;28;45204;-84
2023/09/20 04:17:50;;;;;;;;;0.00;0.00;;;;;17.81;83.33;100341.00;5063929;28;45465;-80
2023/09/20 04:20:20;;;;;;;;;1.67;1.00;;;;;17.83;83.25;100339.03;5060179;28;45521;-81
2023/09/20 04:22:45;;;;;;;;;1.00;1.00;;;;;17.81;83.49;100323.03;5060774;28;45382;-81
2023/09/20 04:25:11;;;;;;;;;0.33;0.33;;;;;17.67;83.33;100313.50;5059933;27;45325;-79
2023/09/20 04:27:36;;;;;;;;;1.33;1.33;;;;;17.68;83.21;100315.22;5065542;28;45476;-82
2023/09/20 04:30:03;;;;;;;;;1.00;1.00;;;;;17.72;83.43;100313.13;5065493;27;45800;-79
2023/09/20 04:32:28;;;;;;;;;1.33;1.33;;;;;17.77;83.40;100307.31;5060120;28;45358;-79
2023/09/20 04:34:56;;;;;;;;;2.00;2.00;;;;;17.43;83.40;100240.41;5059535;28;45287;-79
2023/09/20 04:37:25;;;;;;;;;1.00;1.00;;;;;17.74;83.61;100297.69;5060250;28;45483;-82
2023/09/20 04:39:51;;;;;;;;;1.00;1.00;;;;;17.75;83.27;100307.47;5059192;28;45450;-80
2023/09/20 04:42:16;;;;;;;;;6.00;1.33;;;;;17.74;83.39;100302.22;5059240;28;45459;-80
2023/09/20 04:44:42;;;;;;;;;1.00;1.00;;;;;17.71;83.39;100297.09;5059951;28;45330;-80
2023/09/20 04:47:07;;;;;;;;;1.00;1.00;;;;;17.59;83.90;100278.38;5059943;28;45541;-79
2023/09/20 04:49:33;;;;;;;;;2.00;0.67;;;;;17.68;84.21;100293.69;5068312;28;46784;-78
2023/09/20 04:52:00;;;;;;;;;1.00;1.00;;;;;17.67;83.92;100297.34;5068426;28;45160;-79
2023/09/20 04:54:26;;;;;;;;;1.67;1.67;;;;;17.65;83.96;100288.56;5062884;28;45318;-78
2023/09/20 04:56:53;;;;;;;;;2.00;2.00;;;;;17.58;84.25;100282.06;5061649;28;45323;-79
2023/09/20 04:59:19;;;;;;;;;2.00;2.00;;;;;17.55;84.79;100285.00;5062970;28;45445;-78
2023/09/20 05:01:45;;;;;;;;;2.00;2.00;;;;;17.55;84.43;100290.38;5060563;28;45342;-79
2023/09/20 05:04:13;;;;;;;;;1.00;1.00;;;;;17.55;84.79;100290.38;5062661;28;45390;-80
2023/09/20 05:06:41;;;;;;;;;2.67;2.00;;;;;17.55;84.44;100285.00;5062302;28;45413;-80
2023/09/20 05:09:07;;;;;;;;;2.67;2.00;;;;;17.39;84.84;100268.56;5060084;28;45448;-80
2023/09/20 05:11:32;;;;;;;;;3.00;1.00;;;;;17.54;84.82;100285.16;5061080;28;45405;-93
2023/09/20 05:13:57;;;;;;;;;2.00;2.00;;;;;17.46;84.96;100272.41;5068608;28;56950;-92
2023/09/20 05:16:23;;;;;;;;;1.00;1.00;;;;;17.42;84.67;100264.75;5067520;28;45390;-93
2023/09/20 05:18:48;;;;;;;;;3.00;2.00;;;;;17.40;84.73;100262.19;5066646;28;45287;-93
2023/09/20 05:21:14;;;;;;;;;2.00;2.00;;;;;17.43;84.96;100277.19;5068336;28;44752;-90
2023/09/20 05:23:40;;;;;;;;;1.00;1.00;;;;;17.43;84.92;100286.09;5068092;28;45278;-92
2023/09/20 05:26:06;;;;;;;;;1.00;1.00;;;;;17.40;85.10;100281.00;5066741;28;44799;-91
2023/09/20 05:28:31;;;;;;;;;1.00;1.00;;;;;17.42;85.18;100280.88;5072167;28;45306;-90
2023/09/20 05:30:57;;;;;;;;;2.00;1.00;;;;;17.45;85.53;100289.53;5064695;28;45323;-90
2023/09/20 05:33:23;;;;;;;;;3.00;1.00;;;;;17.43;85.51;100280.72;5064058;28;45423;-90
2023/09/20 05:35:49;;;;;;;;;5.00;3.33;;;;;17.42;84.94;100281.72;5063898;28;45233;-88
2023/09/20 05:38:17;;;;;;;;;3.00;3.00;;;;;17.43;85.36;100288.78;5063623;28;45334;-88
2023/09/20 05:40:43;;;;;;;;;3.00;3.00;;;;;17.41;85.23;100293.47;5063509;28;45517;-84
2023/09/20 05:43:09;;;;;;;;;1.00;1.00;;;;;17.37;85.39;100295.59;5067536;28;45425;-87
2023/09/20 05:45:35;;;;;;;;;3.33;1.00;;;;;17.24;85.64;100276.16;5066457;27;45240;-81
2023/09/20 05:48:01;;;;;;;;;2.00;2.00;;;;;17.32;85.49;100288.94;5064231;27;45910;-81
2023/09/20 05:50:33;;;;;;;;;3.00;1.33;;;;;17.30;85.81;100280.13;5060543;28;45346;-79
2023/09/20 05:52:59;;;;;;;;;1.67;1.67;;;;;17.32;86.00;100291.63;5060827;28;45275;-81
2023/09/20 05:55:26;;;;;;;;;2.00;2.00;;;;;17.32;85.80;100286.25;5058939;28;46827;-81
2023/09/20 05:57:53;;;;;;;;;5.33;2.33;;;;;17.33;85.45;100266.44;5051762;28;46194;-81
2023/09/20 06:00:22;;;;;;;;;4.33;3.00;;;;;17.40;85.27;100262.19;5059484;27;45484;-82
2023/09/20 06:02:49;;;;;;;;;1.00;1.00;;;;;17.32;85.76;100243.25;5057197;28;45443;-82
2023/09/20 06:05:15;;;;;;;;;2.00;2.00;;;;;17.38;85.79;100261.50;5058470;28;45430;-84
2023/09/20 06:07:41;;;;;;;;;2.00;2.00;;;;;17.33;85.58;100251.16;5057752;28;45509;-81
2023/09/20 06:10:12;;;;;;;;;2.67;2.67;;;;;17.33;85.93;100244.94;5058100;28;45261;-81
2023/09/20 06:12:38;;;;;;;;;4.00;2.00;;;;;17.37;85.84;100252.56;5058672;28;45255;-81
2023/09/20 06:15:07;;;;;;;;;2.33;2.33;;;;;17.37;85.94;100240.97;5059430;28;45314;-81
2023/09/20 06:17:32;;;;;;;;;2.67;2.67;;;;;17.39;85.93;100242.53;5058280;28;45434;-79
2023/09/20 06:19:59;;;;;;;;;3.00;2.33;;;;;17.30;85.45;100221.84;5056947;28;45390;-83
2023/09/20 06:22:32;;;;;;;;;4.00;2.00;;;;;17.48;85.24;100238.16;5059091;28;45485;-81
2023/09/20 06:24:58;;;;;;;;;3.67;3.67;;;;;17.43;84.88;100223.44;5059525;28;45378;-80
2023/09/20 06:27:30;;;;;;;;;4.67;4.67;;;;;17.44;84.32;100212.53;5061480;28;45402;-83
2023/09/20 06:29:57;;;;;;;;;3.00;3.00;;;;;17.66;84.16;100255.31;5062205;28;45440;-83
2023/09/20 06:32:23;;;;;;;;;4.67;3.67;;;;;17.74;83.84;100267.25;5059302;28;45712;-83
2023/09/20 06:34:50;;;;;;;;;3.67;3.67;;;;;17.72;83.78;100250.41;5060509;28;45244;-88
2023/09/20 06:37:17;;;;;;;;;4.33;3.00;;;;;17.84;83.40;100270.78;5058752;28;46170;-89
2023/09/20 06:39:43;;;;;;;;;3.00;3.00;;;;;17.80;83.17;100234.41;5061112;28;45275;-85
2023/09/20 06:42:10;;;;;;;;;5.00;5.00;;;;;17.79;82.37;100213.88;5058607;28;45367;-85
2023/09/20 06:44:38;;;;;;;;;4.00;4.00;;;;;18.07;82.06;100256.06;5061109;28;45459;-84
2023/09/20 06:47:05;;;;;;;;;2.00;2.00;;;;;18.13;81.43;100250.13;5059233;28;45286;-82
2023/09/20 06:49:31;;;;;;;;;2.00;2.00;;;;;18.02;81.01;100234.13;5062304;28;45240;-85
2023/09/20 06:52:01;;;;;;;;;4.00;4.00;;;;;18.22;80.96;100243.88;5060859;28;45485;-80
2023/09/20 06:54:27;;;;;;;;;3.67;3.67;;;;;18.23;80.59;100256.38;5061427;28;45517;-81
2023/09/20 06:56:52;;;;;;;;;4.00;3.00;;;;;18.06;80.96;100235.53;5062129;28;45313;-84
2023/09/20 06:59:18;;;;;;;;;3.00;3.00;;;;;18.23;80.24;100240.22;5063110;28;44733;-87
2023/09/20 07:01:44;;;;;;;;;4.00;4.00;;;;;18.41;79.74;100252.94;5061353;28;45238;-86
2023/09/20 07:04:10;;;;;;;;;4.33;3.00;;;;;18.48;79.55;100260.28;5065417;28;45180;-82
2023/09/20 07:06:37;;;;;;;;;4.33;4.00;;;;;18.31;79.94;100234.09;5057864;28;48146;-83
2023/09/20 07:09:03;;;;;;;;;4.00;3.00;;;;;18.32;79.55;100232.25;5083595;27;44913;-83
2023/09/20 07:11:29;;;;;;;;;3.00;3.00;;;;;18.47;79.58;100263.13;5065442;28;45426;-81
2023/09/20 07:13:54;;;;;;;;;4.00;3.00;;;;;18.32;79.39;100238.47;5077788;28;45568;-81
2023/09/20 07:16:20;;;;;;;;;5.00;3.00;;;;;18.52;79.08;100263.53;5079227;28;58247;-78
2023/09/20 07:18:46;;;;;;;;;3.00;3.00;;;;;18.42;78.88;100239.31;5081537;28;45382;-82
2023/09/20 07:21:14;;;;;;;;;5.00;3.33;;;;;18.53;79.00;100265.25;5080984;28;45358;-84
2023/09/20 07:23:41;;;;;;;;;3.33;2.00;;;;;18.61;78.61;100254.56;5058876;28;45258;-81
2023/09/20 07:26:07;;;;;;;;;4.67;3.67;;;;;18.71;77.81;100246.50;5077695;28;45990;-84
2023/09/20 07:28:32;;;;;;;;;4.67;4.00;;;;;18.61;77.65;100227.63;5080856;28;45475;-86
2023/09/20 07:30:58;;;;;;;;;5.00;3.33;;;;;18.78;77.37;100261.94;5082452;28;45407;-85
2023/09/20 07:33:23;;;;;;;;;3.00;3.00;;;;;18.73;77.69;100255.28;5080285;28;45267;-84
2023/09/20 07:35:58;;;;;;;;;5.00;3.67;;;;;18.68;77.25;100247.66;5080363;27;45436;-85
2023/09/20 07:38:29;;;;;;;;;3.00;1.67;;;;;18.69;77.13;100241.28;5081331;28;45434;-82
2023/09/20 07:41:08;;;;;;;;;4.00;2.67;;;;;18.81;77.09;100253.56;5074534;28;45432;-81
2023/09/20 07:43:34;;;;;;;;;3.00;3.00;;;;;18.85;77.13;100256.81;5092705;28;45448;-84
2023/09/20 07:46:03;;;;;;;;;3.00;3.00;;;;;18.86;77.07;100247.72;5083106;28;45243;-85
2023/09/20 07:48:32;;;;;;;;;4.67;4.67;;;;;18.83;77.04;100243.50;5097203;28;45778;-87
2023/09/20 07:50:59;;;;;;;;;4.00;4.00;;;;;18.92;76.89;100246.31;5092510;28;44807;-88
2023/09/20 07:53:26;;;;;;;;;7.33;4.67;;;;;18.96;76.61;100248.53;5098586;28;45366;-85
2023/09/20 07:56:05;;;;;;;;;5.00;3.00;;;;;18.92;76.50;100246.31;5099743;28;45243;-88
2023/09/20 07:58:40;;;;;;;;;5.67;4.00;;;;;18.79;76.77;100209.75;5077038;28;45315;-86
2023/09/20 08:01:11;;;;;;;;;4.67;3.00;;;;;18.90;76.39;100224.06;5069632;28;45414;-86
2023/09/20 08:03:36;;;;;;;;;2.00;2.00;;;;;18.96;76.26;100231.53;5085147;28;45454;-85
2023/09/20 08:06:08;;;;;;;;;6.00;4.67;;;;;18.79;76.35;100215.16;5086465;27;45340;-87
2023/09/20 08:08:35;;;;;;;;;5.67;4.00;;;;;19.03;76.22;100240.72;5104019;27;45935;-89
2023/09/20 08:11:00;;;;;;;;;4.00;4.00;;;;;18.97;75.92;100217.06;5078501;28;45453;-86
2023/09/20 08:13:27;;;;;;;;;5.00;3.33;;;;;19.22;75.42;100242.47;5068676;28;45574;-85
2023/09/20 08:15:52;;;;;;;;;4.67;2.67;;;;;19.19;75.25;100222.06;5082053;27;45369;-87
2023/09/20 08:21:03;;;;;;;;;4.00;4.00;;;;;19.43;74.96;100238.53;5064094;28;45348;-84
2023/09/20 09:02:12;;;;;;;;;0.67;0.67;;;;;20.71;67.59;100227.38;5054718;28;45531;-86
2023/09/20 09:04:38;;;;;;;;;4.00;4.00;;;;;20.74;67.19;100209.97;5093105;27;45342;-84
2023/09/20 09:07:05;;;;;;;;;2.67;2.00;;;;;20.92;67.04;100241.31;5064049;28;45427;-83
2023/09/20 09:09:30;;;;;;;;;3.33;3.33;;;;;20.96;66.81;100235.59;5077087;27;46150;-86
2023/09/20 09:11:59;;;;;;;;;4.33;3.33;;;;;20.85;66.49;100207.00;5040445;28;45284;-87
2023/09/20 09:14:25;;;;;;;;;3.00;3.00;;;;;21.15;66.19;100235.34;5055917;28;45453;-87
2023/09/20 09:17:01;;;;;;;;;2.67;2.67;;;;;21.43;65.04;100217.91;5076222;28;45476;-83
2023/09/20 09:19:27;;;;;;;;;4.00;3.00;;;;;21.67;64.21;100217.09;5061700;28;46045;-83
2023/09/20 09:21:52;;;;;;;;;2.67;2.67;;;;;21.70;63.70;100211.34;5066744;28;45352;-82
2023/09/20 09:24:18;;;;;;;;;2.33;2.33;;;;;21.61;63.55;100209.63;5058880;28;45805;-81
2023/09/20 09:26:46;;;;;;;;;3.67;3.33;;;;;21.40;63.53;100184.94;5061280;28;45520;-84
2023/09/20 09:29:18;;;;;;;;;6.50;4.50;;;;;21.30;64.31;100190.47;5061610;28;47227;-83
2023/09/20 09:31:56;;;;;;;;;4.33;3.00;;;;;21.19;64.56;100177.22;5061766;28;45416;-83
2023/09/20 09:34:22;;;;;;;;;3.67;3.00;;;;;21.27;65.33;100185.41;5063740;28;45547;-88
2023/09/20 09:36:48;;;;;;;;;3.67;2.00;;;;;21.20;64.37;100157.28;5061944;28;45538;-86
2023/09/20 09:39:14;;;;;;;;;4.67;3.00;;;;;21.26;64.21;100177.44;5061130;28;45912;-87
2023/09/20 09:41:44;;;;;;;;;5.33;4.00;;;;;21.08;65.15;100143.22;5041284;28;44739;-87
2023/09/20 09:44:11;;;;;;;;;1.00;1.00;;;;;21.31;64.21;100161.56;5040693;28;45370;-83
2023/09/20 09:46:41;;;;;;;;;3.00;3.00;;;;;21.36;63.81;100156.53;5057538;28;45415;-85
2023/09/20 09:49:11;;;;;;;;;2.67;2.00;;;;;21.48;63.15;100156.03;5076418;28;47926;-85
2023/09/20 09:51:46;;;;;;;;;3.00;3.00;;;;;21.60;61.64;100159.25;5043560;28;45501;-87
2023/09/20 09:54:13;;;;;;;;;1.75;1.75;;;;;21.66;60.72;100153.19;5042509;28;45390;-86
2023/09/20 09:56:40;;;;;;;;;2.75;2.75;;;;;21.69;60.22;100152.84;5057416;28;45511;-89
2023/09/20 09:59:05;;;;;;;;;4.00;1.50;;;;;21.71;59.29;100145.38;5063590;28;45334;-80
2023/09/20 10:01:36;;;;;;;;;2.33;1.67;;;;;21.77;59.19;100139.31;5072073;27;45439;-84
2023/09/20 10:04:10;;;;;;;;;1.33;1.33;;;;;21.86;58.48;100131.16;5084490;28;45284;-88
2023/09/20 10:06:43;;;;;;;;;2.75;2.00;;;;;21.82;58.58;100138.78;5088507;27;45250;-84
2023/09/20 10:09:13;;;;;;;;;1.00;1.00;;;;;21.87;57.56;100135.56;5063833;28;46130;-85
2023/09/20 10:11:41;;;;;;;;;4.00;3.00;;;;;21.78;56.99;100097.69;5065346;28;45344;-88
2023/09/20 10:14:08;;;;;;;;;1.50;1.50;;;;;21.95;56.09;100111.22;5054936;28;45447;-86
2023/09/20 10:16:42;;;;;;;;;2.33;2.33;;;;;21.72;56.19;100059.63;5067163;28;45480;-87
2023/09/20 10:19:11;;;;;;;;;1.00;1.00;;;;;22.22;56.14;100116.28;5069360;28;45416;-86
2023/09/20 10:21:39;;;;;;;;;3.00;3.00;;;;;22.47;54.42;100121.63;5060592;27;45300;-86
2023/09/20 10:24:09;;;;;;;;;3.50;2.75;;;;;22.72;54.68;100119.69;5092075;27;45704;-85
2023/09/20 10:26:38;;;;;;;;;2.00;2.00;;;;;22.74;54.08;100107.63;5079992;27;45514;-83
2023/09/20 10:29:26;;;;;;;;;1.75;1.75;;;;;22.94;53.65;100110.81;5078200;27;45527;-83
2023/09/20 10:32:06;;;;;;;;;2.75;2.75;;;;;23.07;51.66;100083.94;5068379;28;45441;-83
2023/09/20 10:34:36;;;;;;;;;3.00;1.00;;;;;23.05;50.30;100090.53;5075459;28;45348;-83
2023/09/20 10:37:07;;;;;;;;;5.00;4.00;;;;;23.31;50.68;100091.09;5076948;28;45622;-82
2023/09/20 10:39:33;;;;;;;;;3.75;2.75;;;;;23.52;48.61;100088.53;5075674;28;47277;-84
2023/09/20 10:42:10;;;;;;;;;2.25;2.25;;;;;23.77;48.09;100080.22;5076245;28;45802;-84
2023/09/20 10:44:38;;;;;;;;;1.25;1.25;;;;;24.04;47.76;100087.75;5069220;28;46390;-83
2023/09/20 10:47:15;;;;;;;;;1.25;1.25;;;;;24.25;45.72;100086.19;5041140;28;45556;-84
2023/09/20 10:49:55;;;;;;;;;2.00;2.00;;;;;24.37;44.70;100076.59;5063431;28;45911;-84
2023/09/20 10:52:37;;;;;;;;;1.60;1.60;;;;;24.79;44.28;100081.31;5075085;28;45409;-85
2023/09/20 10:55:14;;;;;;;;;2.00;2.00;;;;;25.05;43.33;100075.38;5063719;27;45392;-84
2023/09/20 10:57:42;;;;;;;;;3.00;1.50;;;;;25.12;42.68;100070.84;5044926;28;45508;-83
2023/09/20 11:00:08;;;;;;;;;2.00;2.00;;;;;25.02;42.45;100051.28;5056904;28;46479;-83
2023/09/20 11:02:34;;;;;;;;;2.00;2.00;;;;;25.01;42.77;100056.91;5055151;28;45515;-84
2023/09/20 11:05:04;;;;;;;;;3.25;1.00;;;;;25.25;42.85;100070.13;5051920;28;50951;-86
2023/09/20 11:07:29;;;;;;;;;6.00;3.00;;;;;25.35;43.18;100056.22;5038887;28;45207;-83
2023/09/20 11:09:55;;;;;;;;;3.25;1.00;;;;;25.54;43.02;100047.41;5048150;28;46354;-84
2023/09/20 11:12:20;;;;;;;;;1.00;1.00;;;;;25.95;42.47;100054.88;5055917;28;45239;-85
2023/09/20 11:14:47;;;;;;;;;4.75;3.00;;;;;26.33;41.32;100064.34;5056217;28;45602;-86
2023/09/20 11:17:16;;;;;;;;;2.00;1.50;;;;;26.53;41.33;100047.28;5055892;28;45646;-86
2023/09/20 11:19:42;;;;;;;;;4.40;2.00;;;;;26.74;41.05;100069.81;5057548;28;46231;-87
2023/09/20 11:22:07;;;;;;;;;3.75;3.75;;;;;26.83;39.94;100058.75;5057142;28;45393;-87
2023/09/20 11:24:36;;;;;;;;;2.00;2.00;;;;;26.98;40.07;100041.16;5057151;28;45264;-87
2023/09/20 11:27:02;;;;;;;;;1.20;1.20;;;;;27.32;39.60;100032.00;5055183;28;45268;-85
2023/09/20 11:29:27;;;;;;;;;1.40;1.40;;;;;27.44;37.76;100037.69;5056548;28;48001;-86
2023/09/20 11:31:57;;;;;;;;;1.00;1.00;;;;;27.41;37.65;100013.53;5043098;28;45758;-87
2023/09/20 11:34:23;;;;;;;;;2.20;2.20;;;;;27.68;37.95;100024.50;5048452;28;45443;-87
2023/09/20 11:36:53;;;;;;;;;1.60;1.40;;;;;27.99;37.45;100021.91;5040599;28;45565;-88
2023/09/20 11:39:27;;;;;;;;;0.00;0.00;;;;;28.19;37.03;100030.94;5055049;27;46775;-86
2023/09/20 11:41:59;;;;;;;;;1.00;0.60;;;;;28.49;36.64;100024.97;5068921;28;45367;-88
2023/09/20 11:44:25;;;;;;;;;2.00;2.00;;;;;28.73;36.00;100042.56;5058324;27;45273;-86
2023/09/20 11:46:52;;;;;;;;;1.25;1.25;;;;;28.64;36.26;100000.06;5063561;28;48845;-86
2023/09/20 11:49:20;;;;;;;;;3.80;1.20;;;;;28.93;35.95;100015.13;5064557;28;45478;-86
2023/09/20 11:51:45;;;;;;;;;2.40;2.40;;;;;29.26;35.75;100017.63;5073885;28;45436;-86
2023/09/20 11:54:10;;;;;;;;;3.00;1.50;;;;;29.46;35.85;100015.59;5059762;27;45417;-86
2023/09/20 11:56:37;;;;;;;;;1.00;1.00;;;;;29.75;34.95;100005.88;5056934;28;45565;-87
2023/09/20 11:59:09;;;;;;;;;1.80;1.80;;;;;29.80;34.47;99981.38;5071226;28;45740;-85
2023/09/20 12:01:40;;;;;;;;;2.80;1.60;;;;;30.26;34.52;100007.50;5070796;28;45479;-87
2023/09/20 12:04:06;;;;;;;;;1.60;1.60;;;;;30.23;34.37;99961.34;5074879;27;45271;-87
2023/09/20 12:06:32;;;;;;;;;1.00;1.00;;;;;30.66;33.54;99990.56;5060430;28;45600;-88
2023/09/20 12:09:00;;;;;;;;;3.50;2.50;;;;;30.69;33.60;99971.72;5060412;28;46180;-86